createdAt,value
2023-01-15T00:00:36.691Z,10.14
2023-01-15T00:05:42.763Z,9.23
2023-01-15T00:10:50.754Z,7.71
2023-01-15T00:15:56.866Z,6.08
2023-01-15T00:21:04.782Z,6.29
2023-01-15T00:26:11.189Z,8.01
2023-01-15T00:31:17.777Z,7.81
2023-01-15T00:36:23.858Z,6.79
2023-01-15T00:41:30.627Z,5.98
2023-01-15T00:46:37.487Z,9.13
2023-01-15T00:51:45.188Z,10.34
2023-01-15T00:56:51.856Z,8.62
2023-01-15T01:01:57.675Z,6.19
2023-01-15T01:07:03.756Z,5.68
2023-01-15T01:12:10.759Z,5.48
2023-01-15T01:17:17.788Z,5.88
2023-01-15T01:22:24.277Z,7.61
2023-01-15T01:27:30.693Z,5.98
2023-01-15T01:32:38.254Z,5.88
2023-01-15T01:37:44.808Z,6.19
2023-01-15T01:42:52.918Z,6.19
2023-01-15T01:47:59.155Z,9.02
2023-01-15T01:53:06.157Z,6.29
2023-01-15T01:58:12.285Z,6.19
2023-01-15T02:03:19.032Z,5.98
2023-01-15T02:08:27.396Z,7.30
2023-01-15T02:13:33.696Z,6.08
2023-01-15T02:18:39.755Z,5.98
2023-01-15T02:23:46.272Z,7.30
2023-01-15T02:28:52.394Z,7.40
2023-01-15T02:34:00.149Z,9.13
2023-01-15T02:39:08.914Z,6.49
2023-01-15T02:44:16.447Z,7.20
2023-01-15T02:49:22.361Z,11.86
2023-01-15T02:54:28.895Z,7.40
2023-01-15T02:59:35.083Z,10.85
2023-01-15T03:04:42.797Z,7.50
2023-01-15T03:09:49.896Z,9.33
2023-01-15T03:14:56.465Z,6.39
2023-01-15T03:20:02.711Z,5.48
2023-01-15T03:25:11.582Z,5.88
2023-01-15T03:30:17.865Z,10.24
2023-01-15T03:35:24.447Z,5.98
2023-01-15T03:40:30.755Z,6.39
2023-01-15T03:45:38.195Z,8.82
2023-01-15T03:51:02.676Z,7.71
2023-01-15T03:55:49.584Z,6.19
2023-01-15T04:00:55.993Z,5.98
2023-01-15T04:06:02.691Z,6.29
2023-01-15T04:11:09.308Z,6.08
2023-01-15T04:16:15.580Z,7.20
2023-01-15T04:21:23.833Z,9.23
2023-01-15T04:26:30.346Z,5.98
2023-01-15T04:31:36.499Z,6.79
2023-01-15T04:36:43.326Z,7.20
2023-01-15T04:41:49.464Z,10.14
2023-01-15T04:46:55.763Z,6.08
2023-01-15T04:52:03.277Z,5.98
2023-01-15T04:57:10.271Z,8.11
2023-01-15T05:02:16.838Z,5.58
2023-01-15T05:07:23.405Z,5.98
2023-01-15T05:12:29.485Z,6.19
2023-01-15T05:17:36.357Z,6.08
2023-01-15T05:22:42.868Z,5.98
2023-01-15T05:27:49.813Z,6.69
2023-01-15T05:32:54.967Z,7.81
2023-01-15T05:38:02.578Z,5.98
2023-01-15T05:43:09.077Z,6.90
2023-01-15T05:48:15.442Z,6.08
2023-01-15T05:53:22.137Z,6.59
2023-01-15T05:58:38.271Z,6.29
2023-01-15T06:03:34.655Z,8.72
2023-01-15T06:08:40.837Z,5.78
2023-01-15T06:13:47.576Z,5.88
2023-01-15T06:18:53.797Z,5.48
2023-01-15T06:24:00.788Z,6.29
2023-01-15T06:29:06.945Z,5.98
2023-01-15T06:34:13.683Z,6.19
2023-01-15T06:39:20.964Z,5.98
2023-01-15T06:44:28.359Z,8.82
2023-01-15T06:49:33.628Z,8.11
2023-01-15T06:54:40.281Z,8.92
2023-01-15T06:59:46.323Z,5.98
2023-01-15T07:04:52.845Z,6.39
2023-01-15T07:10:00.337Z,5.68
2023-01-15T07:15:06.954Z,5.98
2023-01-15T07:20:13.171Z,7.20
2023-01-15T07:25:19.787Z,5.88
2023-01-15T07:30:25.947Z,5.68
2023-01-15T07:35:34.559Z,5.98
2023-01-15T07:40:41.098Z,5.48
2023-01-15T07:45:48.963Z,5.98
2023-01-15T07:50:55.056Z,5.48
2023-01-15T07:56:03.182Z,5.68
2023-01-15T08:01:09.066Z,6.39
2023-01-15T08:06:18.115Z,6.08
2023-01-15T08:11:25.930Z,5.68
2023-01-15T08:16:35.976Z,5.98
2023-01-15T08:21:34.102Z,5.27
2023-01-15T08:26:39.699Z,5.98
2023-01-15T08:31:50.228Z,5.68
2023-01-15T08:36:50.279Z,5.98
2023-01-15T08:41:56.915Z,4.46
2023-01-15T08:47:03.370Z,5.17
2023-01-15T08:52:09.727Z,7.20
2023-01-15T08:57:15.928Z,6.19
2023-01-15T09:02:25.763Z,4.56
2023-01-15T09:07:35.064Z,5.37
2023-01-15T09:12:47.410Z,3.55
2023-01-15T09:17:53.887Z,5.68
2023-01-15T09:22:50.323Z,3.95
2023-01-15T09:28:01.573Z,3.24
2023-01-15T09:33:06.481Z,5.58
2023-01-15T09:38:03.068Z,5.68
2023-01-15T09:43:12.611Z,4.16
2023-01-15T09:48:20.952Z,3.55
2023-01-15T09:53:30.478Z,2.43
2023-01-15T09:58:37.647Z,3.24
2023-01-15T10:03:44.418Z,2.84
2023-01-15T10:09:00.156Z,4.77
2023-01-15T10:14:03.747Z,6.19
2023-01-15T10:19:02.685Z,5.07
2023-01-15T10:24:10.267Z,5.88
2023-01-15T10:29:17.653Z,5.37
2023-01-15T10:34:39.579Z,3.04
2023-01-15T10:39:29.559Z,1.12
2023-01-15T10:44:27.738Z,5.88
2023-01-15T10:49:34.780Z,1.72
2023-01-15T10:54:45.757Z,2.23
2023-01-15T10:59:45.857Z,6.08
2023-01-15T11:04:45.597Z,5.27
2023-01-15T11:09:54.000Z,1.22
2023-01-15T11:14:51.877Z,4.06
2023-01-15T11:20:07.128Z,3.35
2023-01-15T11:25:05.892Z,5.78
2023-01-15T11:30:15.247Z,3.14
2023-01-15T11:35:22.199Z,4.87
2023-01-15T11:40:36.597Z,5.98
2023-01-15T11:45:32.544Z,3.35
2023-01-15T11:55:46.688Z,4.23
2023-01-15T12:00:53.839Z,3.95
2023-01-15T12:06:02.273Z,0.71
2023-01-15T12:11:21.272Z,3.14
2023-01-15T12:16:26.602Z,6.59
2023-01-15T12:21:27.618Z,5.48
2023-01-15T12:26:23.146Z,1.32
2023-01-15T12:31:39.758Z,0.00
2023-01-15T12:36:36.374Z,0.81
2023-01-15T12:41:42.366Z,3.75
2023-01-15T12:46:49.400Z,4.36
2023-01-15T12:51:55.614Z,3.04
2023-01-15T12:57:02.885Z,4.77
2023-01-15T13:02:07.990Z,3.04
2023-01-15T13:07:20.041Z,1.01
2023-01-15T13:12:17.718Z,0.10
2023-01-15T13:17:24.190Z,0.41
2023-01-15T13:22:30.840Z,2.23
2023-01-15T13:27:36.899Z,1.72
2023-01-15T13:37:49.175Z,1.75
2023-01-15T13:43:03.858Z,1.01
2023-01-15T13:48:06.064Z,0.20
2023-01-15T13:53:02.276Z,0.30
2023-01-15T13:58:11.299Z,2.23
2023-01-15T14:03:43.575Z,3.85
2023-01-15T14:08:28.080Z,0.00
2023-01-15T14:13:28.999Z,1.22
2023-01-15T14:18:25.088Z,0.30
2023-01-15T14:23:31.467Z,1.32
2023-01-15T14:28:37.681Z,2.23
2023-01-15T14:33:46.293Z,2.03
2023-01-15T14:38:52.218Z,1.12
2023-01-15T14:44:01.278Z,0.91
2023-01-15T14:49:13.402Z,5.17
2023-01-15T14:54:22.468Z,0.00
2023-01-15T14:59:24.331Z,0.00
2023-01-15T15:04:20.707Z,0.41
2023-01-15T15:09:29.861Z,0.81
2023-01-15T15:14:36.041Z,0.00
2023-01-15T15:19:49.799Z,1.01
2023-01-15T15:24:45.628Z,3.85
2023-01-15T15:30:21.457Z,1.62
2023-01-15T15:34:59.017Z,0.30
2023-01-15T15:40:39.338Z,3.85
2023-01-15T15:45:17.175Z,2.13
2023-01-15T15:50:34.428Z,1.32
2023-01-15T15:55:29.657Z,0.00
2023-01-15T16:00:37.627Z,4.46
2023-01-15T16:05:34.249Z,3.75
2023-01-15T16:10:41.886Z,3.35
2023-01-15T16:15:56.343Z,3.35
2023-01-15T16:21:07.090Z,1.72
2023-01-15T16:31:44.768Z,0.30
2023-01-15T16:36:05.816Z,1.12
2023-01-15T16:41:02.643Z,4.87
2023-01-15T16:46:09.947Z,3.75
2023-01-15T16:51:16.113Z,0.10
2023-01-15T16:56:22.758Z,2.74
2023-01-15T17:01:30.060Z,5.98
2023-01-15T17:06:56.251Z,2.94
2023-01-15T17:16:56.281Z,3.82
2023-01-15T17:21:55.231Z,0.81
2023-01-15T17:27:08.395Z,4.16
2023-01-15T17:32:16.597Z,0.10
2023-01-15T17:37:22.300Z,0.20
2023-01-15T17:42:19.331Z,4.66
2023-01-15T17:52:30.939Z,4.13
2023-01-15T17:57:37.106Z,1.62
2023-01-15T18:02:44.455Z,3.24
2023-01-15T18:07:50.564Z,2.54
2023-01-15T18:12:57.306Z,3.55
2023-01-15T18:18:03.526Z,4.97
2023-01-15T18:23:10.137Z,3.95
2023-01-15T18:28:16.240Z,5.27
2023-01-15T18:33:23.097Z,0.00
2023-01-15T18:38:30.215Z,1.12
2023-01-15T18:43:37.158Z,3.45
2023-01-15T18:48:43.622Z,3.95
2023-01-15T18:53:50.224Z,5.78
2023-01-15T18:58:56.834Z,5.58
2023-01-15T19:04:02.623Z,4.26
2023-01-15T19:09:08.658Z,4.56
2023-01-15T19:14:15.356Z,2.13
2023-01-15T19:19:21.655Z,5.27
2023-01-15T19:24:29.355Z,1.62
2023-01-15T19:29:35.476Z,2.33
2023-01-15T19:34:43.790Z,0.20
2023-01-15T19:39:50.214Z,4.26
2023-01-15T19:44:56.877Z,0.30
2023-01-15T19:50:03.127Z,3.75
2023-01-15T19:55:09.805Z,1.42
2023-01-15T20:00:16.989Z,0.20
2023-01-15T20:05:24.486Z,3.45
2023-01-15T20:10:30.585Z,1.83
2023-01-15T20:15:37.227Z,3.14
2023-01-15T20:20:44.468Z,3.24
2023-01-15T20:25:51.165Z,4.26
2023-01-15T20:30:58.713Z,4.16
2023-01-15T20:36:05.505Z,2.03
2023-01-15T20:41:11.777Z,2.74
2023-01-15T20:46:18.401Z,3.24
2023-01-15T20:51:24.914Z,2.43
2023-01-15T20:56:33.112Z,5.98
2023-01-15T21:01:39.444Z,4.06
2023-01-15T21:06:45.997Z,2.13
2023-01-15T21:11:53.106Z,3.04
2023-01-15T21:16:59.746Z,2.23
2023-01-15T21:22:05.781Z,2.13
2023-01-15T21:27:13.329Z,2.64
2023-01-15T21:32:19.563Z,0.71
2023-01-15T21:37:26.138Z,1.22
2023-01-15T21:42:32.305Z,1.93
2023-01-15T21:47:38.736Z,0.20
2023-01-15T21:52:44.842Z,0.00
2023-01-15T21:57:52.745Z,3.55
2023-01-15T22:02:59.125Z,0.00
2023-01-15T22:08:06.636Z,1.93
2023-01-15T22:13:12.867Z,2.84
2023-01-15T22:18:19.493Z,0.20
2023-01-15T22:23:25.630Z,0.00
2023-01-15T22:28:33.813Z,2.43
2023-01-15T22:33:40.109Z,0.81
2023-01-15T22:38:46.775Z,3.55
2023-01-15T22:43:53.191Z,4.66
2023-01-15T22:48:59.938Z,4.97
2023-01-15T22:54:05.967Z,3.65
2023-01-15T22:59:13.301Z,3.14
2023-01-15T23:04:22.643Z,5.98
2023-01-15T23:09:29.233Z,3.85
2023-01-15T23:14:35.221Z,5.48
2023-01-15T23:19:43.234Z,3.85
2023-01-15T23:24:49.732Z,4.77
2023-01-15T23:29:57.649Z,5.07
2023-01-15T23:35:04.118Z,3.85
2023-01-15T23:40:10.792Z,5.98
2023-01-15T23:45:17.178Z,5.58
2023-01-15T23:50:25.111Z,3.24
2023-01-15T23:55:31.706Z,3.35
